Dallas, Texas
Traffic Map
Current Weather Conditions
Dallas, Texas
Overcast Drizzle
Overcast

Feels Like: -3°
Wind Chill: -3° Ceiling: 300
Heat Index: Visibility: 1mi
Dew Point: Wind: 7mph
Humidity: 96% Direction: 350° (N)
Pressure: 30.32in Gusts: 0mph
Raw Report DataKDAL 011224Z 35006KT 1SM R13L/P6000FT -DZ BR OVC003 01/00 A3032 RMK AO2 TWR VIS 2 VIS N-NE 3/4 P0000 T00060000
Traffic Incident Summary
Active as of:
Severity:
Category:
InformationThere was an issue retrieving the traffic information for this location. Please try a different location or try again shortly.
Advertisements
Track Severe Weather on mobile